sensor_id;sensor_type;location;lat;lon;timestamp;P1;durP1;ratioP1;P2;durP2;ratioP2
9234;SDS011;4652;42.716;23.218;2023-05-14T00:06:01;8.00;;;5.40;;
9234;SDS011;4652;42.716;23.218;2023-05-14T00:12:43;5.60;;;5.10;;
9234;SDS011;4652;42.716;23.218;2023-05-14T00:19:25;6.47;;;4.50;;
9234;SDS011;4652;42.716;23.218;2023-05-14T00:26:09;6.53;;;4.53;;
9234;SDS011;4652;42.716;23.218;2023-05-14T00:32:51;4.93;;;3.57;;
9234;SDS011;4652;42.716;23.218;2023-05-14T00:39:33;4.20;;;3.80;;
9234;SDS011;4652;42.716;23.218;2023-05-14T00:46:16;4.23;;;3.87;;
9234;SDS011;4652;42.716;23.218;2023-05-14T00:52:58;4.40;;;4.00;;
9234;SDS011;4652;42.716;23.218;2023-05-14T00:59:40;4.00;;;3.60;;
9234;SDS011;4652;42.716;23.218;2023-05-14T03:18:27;4.87;;;3.20;;
9234;SDS011;4652;42.716;23.218;2023-05-14T03:25:09;3.97;;;3.50;;
9234;SDS011;4652;42.716;23.218;2023-05-14T03:31:51;3.80;;;3.40;;
9234;SDS011;4652;42.716;23.218;2023-05-14T03:38:35;3.50;;;3.20;;
9234;SDS011;4652;42.716;23.218;2023-05-14T03:45:17;4.20;;;2.93;;
9234;SDS011;4652;42.716;23.218;2023-05-14T03:51:59;4.50;;;3.33;;
9234;SDS011;4652;42.716;23.218;2023-05-14T03:58:42;4.60;;;3.47;;
9234;SDS011;4652;42.716;23.218;2023-05-14T04:05:24;3.90;;;3.30;;
9234;SDS011;4652;42.716;23.218;2023-05-14T04:12:06;3.30;;;3.00;;
9234;SDS011;4652;42.716;23.218;2023-05-14T04:18:50;3.97;;;3.17;;
9234;SDS011;4652;42.716;23.218;2023-05-14T04:25:32;4.67;;;3.03;;
9234;SDS011;4652;42.716;23.218;2023-05-14T04:32:14;3.90;;;3.50;;
9234;SDS011;4652;42.716;23.218;2023-05-14T04:38:58;3.80;;;3.40;;
9234;SDS011;4652;42.716;23.218;2023-05-14T04:45:40;5.17;;;3.17;;
9234;SDS011;4652;42.716;23.218;2023-05-14T04:52:22;5.00;;;3.57;;
9234;SDS011;4652;42.716;23.218;2023-05-14T04:59:05;4.90;;;4.07;;
9234;SDS011;4652;42.716;23.218;2023-05-14T05:05:47;5.63;;;4.20;;
9234;SDS011;4652;42.716;23.218;2023-05-14T05:12:29;5.23;;;4.73;;
9234;SDS011;4652;42.716;23.218;2023-05-14T05:19:12;6.30;;;4.50;;
9234;SDS011;4652;42.716;23.218;2023-05-14T05:25:54;6.67;;;4.90;;
9234;SDS011;4652;42.716;23.218;2023-05-14T05:32:36;5.30;;;4.80;;
9234;SDS011;4652;42.716;23.218;2023-05-14T05:39:20;5.20;;;4.70;;
9234;SDS011;4652;42.716;23.218;2023-05-14T05:46:02;5.93;;;5.00;;
9234;SDS011;4652;42.716;23.218;2023-05-14T05:52:44;8.17;;;5.80;;
9234;SDS011;4652;42.716;23.218;2023-05-14T05:59:27;6.63;;;5.70;;
9234;SDS011;4652;42.716;23.218;2023-05-14T06:06:09;9.10;;;6.50;;
9234;SDS011;4652;42.716;23.218;2023-05-14T06:12:51;7.93;;;7.13;;
9234;SDS011;4652;42.716;23.218;2023-05-14T06:19:34;10.13;;;7.60;;
9234;SDS011;4652;42.716;23.218;2023-05-14T06:26:16;12.10;;;7.90;;
9234;SDS011;4652;42.716;23.218;2023-05-14T06:32:58;8.47;;;7.30;;
9234;SDS011;4652;42.716;23.218;2023-05-14T06:39:41;9.43;;;7.50;;
9234;SDS011;4652;42.716;23.218;2023-05-14T06:46:29;9.13;;;8.20;;
9234;SDS011;4652;42.716;23.218;2023-05-14T06:53:10;13.37;;;8.67;;
9234;SDS011;4652;42.716;23.218;2023-05-14T06:59:54;10.17;;;8.40;;
9234;SDS011;4652;42.716;23.218;2023-05-14T07:07:55;11.17;;;8.27;;
9234;SDS011;4652;42.716;23.218;2023-05-14T07:14:37;10.70;;;7.87;;
9234;SDS011;4652;42.716;23.218;2023-05-14T07:21:19;10.93;;;9.43;;
9234;SDS011;4652;42.716;23.218;2023-05-14T07:28:03;12.50;;;11.27;;
9234;SDS011;4652;42.716;23.218;2023-05-14T07:34:45;14.00;;;12.67;;
9234;SDS011;4652;42.716;23.218;2023-05-14T07:41:27;11.90;;;10.47;;
9234;SDS011;4652;42.716;23.218;2023-05-14T07:48:10;13.60;;;12.20;;
9234;SDS011;4652;42.716;23.218;2023-05-14T07:54:52;16.40;;;12.37;;
9234;SDS011;4652;42.716;23.218;2023-05-14T08:01:34;12.67;;;11.03;;
9234;SDS011;4652;42.716;23.218;2023-05-14T08:08:17;19.93;;;18.13;;
9234;SDS011;4652;42.716;23.218;2023-05-14T08:14:59;13.13;;;11.13;;
9234;SDS011;4652;42.716;23.218;2023-05-14T08:21:41;10.87;;;9.30;;
9234;SDS011;4652;42.716;23.218;2023-05-14T08:28:24;12.37;;;11.03;;
9234;SDS011;4652;42.716;23.218;2023-05-14T08:35:06;9.87;;;8.60;;
9234;SDS011;4652;42.716;23.218;2023-05-14T08:41:49;11.83;;;9.67;;
9234;SDS011;4652;42.716;23.218;2023-05-14T08:48:34;10.00;;;9.00;;
9234;SDS011;4652;42.716;23.218;2023-05-14T08:55:16;9.67;;;8.40;;
9234;SDS011;4652;42.716;23.218;2023-05-14T09:02:00;15.90;;;10.40;;
9234;SDS011;4652;42.716;23.218;2023-05-14T09:08:45;8.50;;;7.70;;
9234;SDS011;4652;42.716;23.218;2023-05-14T09:15:27;8.70;;;7.80;;
9234;SDS011;4652;42.716;23.218;2023-05-14T09:22:11;8.70;;;7.77;;
9234;SDS011;4652;42.716;23.218;2023-05-14T09:28:56;13.23;;;12.03;;
9234;SDS011;4652;42.716;23.218;2023-05-14T09:35:39;12.83;;;10.67;;
9234;SDS011;4652;42.716;23.218;2023-05-14T09:42:22;10.93;;;9.93;;
9234;SDS011;4652;42.716;23.218;2023-05-14T09:49:05;9.90;;;8.93;;
9234;SDS011;4652;42.716;23.218;2023-05-14T09:55:48;12.07;;;10.73;;
9234;SDS011;4652;42.716;23.218;2023-05-14T10:02:33;13.27;;;10.37;;
9234;SDS011;4652;42.716;23.218;2023-05-14T10:09:18;15.70;;;14.10;;
9234;SDS011;4652;42.716;23.218;2023-05-14T10:16:07;15.57;;;11.90;;
9234;SDS011;4652;42.716;23.218;2023-05-14T10:22:54;13.57;;;11.50;;
9234;SDS011;4652;42.716;23.218;2023-05-14T10:29:38;11.70;;;10.60;;
9234;SDS011;4652;42.716;23.218;2023-05-14T10:36:21;12.07;;;10.80;;
9234;SDS011;4652;42.716;23.218;2023-05-14T10:43:03;13.53;;;11.80;;
9234;SDS011;4652;42.716;23.218;2023-05-14T10:49:49;14.80;;;12.23;;
9234;SDS011;4652;42.716;23.218;2023-05-14T10:56:34;16.53;;;13.17;;
9234;SDS011;4652;42.716;23.218;2023-05-14T11:03:17;15.37;;;13.80;;
9234;SDS011;4652;42.716;23.218;2023-05-14T11:10:02;17.07;;;15.27;;
9234;SDS011;4652;42.716;23.218;2023-05-14T11:16:45;15.30;;;13.90;;
9234;SDS011;4652;42.716;23.218;2023-05-14T11:23:28;16.07;;;14.43;;
9234;SDS011;4652;42.716;23.218;2023-05-14T11:30:15;12.80;;;11.50;;
9234;SDS011;4652;42.716;23.218;2023-05-14T11:36:57;14.70;;;13.27;;
9234;SDS011;4652;42.716;23.218;2023-05-14T11:43:39;11.60;;;10.50;;
9234;SDS011;4652;42.716;23.218;2023-05-14T11:50:23;15.97;;;14.37;;
9234;SDS011;4652;42.716;23.218;2023-05-14T11:57:07;22.07;;;19.77;;
9234;SDS011;4652;42.716;23.218;2023-05-14T12:03:50;18.40;;;16.50;;
9234;SDS011;4652;42.716;23.218;2023-05-14T12:10:41;12.30;;;11.10;;
9234;SDS011;4652;42.716;23.218;2023-05-14T12:17:23;13.30;;;12.03;;
9234;SDS011;4652;42.716;23.218;2023-05-14T12:24:08;16.77;;;14.77;;
9234;SDS011;4652;42.716;23.218;2023-05-14T12:30:56;14.17;;;12.77;;
9234;SDS011;4652;42.716;23.218;2023-05-14T12:37:38;13.83;;;12.43;;
9234;SDS011;4652;42.716;23.218;2023-05-14T12:44:21;14.07;;;12.57;;
9234;SDS011;4652;42.716;23.218;2023-05-14T12:51:04;12.67;;;11.47;;
9234;SDS011;4652;42.716;23.218;2023-05-14T12:57:46;12.40;;;11.20;;
9234;SDS011;4652;42.716;23.218;2023-05-14T13:18:18;12.33;;;11.23;;
9234;SDS011;4652;42.716;23.218;2023-05-14T13:25:01;12.17;;;11.07;;
9234;SDS011;4652;42.716;23.218;2023-05-14T13:31:43;13.50;;;12.27;;
9234;SDS011;4652;42.716;23.218;2023-05-14T13:38:26;14.27;;;12.77;;
9234;SDS011;4652;42.716;23.218;2023-05-14T13:45:09;17.37;;;14.97;;
9234;SDS011;4652;42.716;23.218;2023-05-14T13:51:52;17.37;;;15.60;;
9234;SDS011;4652;42.716;23.218;2023-05-14T13:58:35;16.13;;;14.33;;
9234;SDS011;4652;42.716;23.218;2023-05-14T14:05:17;21.33;;;18.93;;
9234;SDS011;4652;42.716;23.218;2023-05-14T14:12:00;17.87;;;15.97;;
9234;SDS011;4652;42.716;23.218;2023-05-14T14:18:43;19.37;;;17.37;;
9234;SDS011;4652;42.716;23.218;2023-05-14T14:25:25;17.70;;;15.90;;
9234;SDS011;4652;42.716;23.218;2023-05-14T14:32:07;20.13;;;18.03;;
9234;SDS011;4652;42.716;23.218;2023-05-14T14:38:50;21.33;;;18.93;;
9234;SDS011;4652;42.716;23.218;2023-05-14T14:45:32;20.70;;;18.50;;
9234;SDS011;4652;42.716;23.218;2023-05-14T14:52:14;19.90;;;17.83;;
9234;SDS011;4652;42.716;23.218;2023-05-14T14:58:58;19.50;;;17.10;;
9234;SDS011;4652;42.716;23.218;2023-05-14T15:05:40;23.17;;;20.67;;
9234;SDS011;4652;42.716;23.218;2023-05-14T15:12:22;25.60;;;22.87;;
9234;SDS011;4652;42.716;23.218;2023-05-14T15:19:05;23.87;;;21.10;;
9234;SDS011;4652;42.716;23.218;2023-05-14T15:25:47;22.40;;;20.00;;
9234;SDS011;4652;42.716;23.218;2023-05-14T15:32:29;22.27;;;19.17;;
9234;SDS011;4652;42.716;23.218;2023-05-14T15:39:12;23.53;;;21.03;;
9234;SDS011;4652;42.716;23.218;2023-05-14T15:45:54;24.40;;;21.80;;
9234;SDS011;4652;42.716;23.218;2023-05-14T15:52:36;23.37;;;20.83;;
9234;SDS011;4652;42.716;23.218;2023-05-14T15:59:20;33.10;;;29.00;;
9234;SDS011;4652;42.716;23.218;2023-05-14T16:06:03;42.87;;;34.83;;
9234;SDS011;4652;42.716;23.218;2023-05-14T16:12:46;39.23;;;33.37;;
9234;SDS011;4652;42.716;23.218;2023-05-14T16:19:29;42.10;;;36.67;;
9234;SDS011;4652;42.716;23.218;2023-05-14T16:26:11;43.40;;;36.57;;
9234;SDS011;4652;42.716;23.218;2023-05-14T16:32:53;39.07;;;33.37;;
9234;SDS011;4652;42.716;23.218;2023-05-14T16:39:37;34.40;;;29.53;;
9234;SDS011;4652;42.716;23.218;2023-05-14T16:46:18;24.83;;;21.83;;
9234;SDS011;4652;42.716;23.218;2023-05-14T16:53:00;29.63;;;25.67;;
9234;SDS011;4652;42.716;23.218;2023-05-14T16:59:44;26.20;;;23.33;;
9234;SDS011;4652;42.716;23.218;2023-05-14T17:06:26;24.23;;;21.63;;
9234;SDS011;4652;42.716;23.218;2023-05-14T17:13:08;30.13;;;25.30;;
9234;SDS011;4652;42.716;23.218;2023-05-14T17:19:51;30.60;;;26.07;;
9234;SDS011;4652;42.716;23.218;2023-05-14T17:26:33;30.30;;;26.50;;
9234;SDS011;4652;42.716;23.218;2023-05-14T17:33:16;29.83;;;26.67;;
9234;SDS011;4652;42.716;23.218;2023-05-14T17:40:00;29.00;;;24.20;;
9234;SDS011;4652;42.716;23.218;2023-05-14T17:46:42;31.20;;;26.63;;
9234;SDS011;4652;42.716;23.218;2023-05-14T17:53:24;30.07;;;26.53;;
9234;SDS011;4652;42.716;23.218;2023-05-14T18:00:08;28.47;;;25.17;;
9234;SDS011;4652;42.716;23.218;2023-05-14T18:06:50;29.07;;;26.07;;
9234;SDS011;4652;42.716;23.218;2023-05-14T18:13:32;51.77;;;37.87;;
9234;SDS011;4652;42.716;23.218;2023-05-14T18:20:16;24.40;;;21.73;;
9234;SDS011;4652;42.716;23.218;2023-05-14T18:26:58;30.47;;;26.23;;
9234;SDS011;4652;42.716;23.218;2023-05-14T18:33:40;56.70;;;42.50;;
9234;SDS011;4652;42.716;23.218;2023-05-14T18:40:23;27.90;;;24.93;;
9234;SDS011;4652;42.716;23.218;2023-05-14T18:47:05;28.27;;;25.27;;
9234;SDS011;4652;42.716;23.218;2023-05-14T18:53:47;106.20;;;82.43;;
9234;SDS011;4652;42.716;23.218;2023-05-14T21:31:48;11.73;;;10.53;;
9234;SDS011;4652;42.716;23.218;2023-05-14T21:38:30;11.77;;;10.67;;
9234;SDS011;4652;42.716;23.218;2023-05-14T21:45:11;13.47;;;11.23;;
9234;SDS011;4652;42.716;23.218;2023-05-14T21:51:55;14.17;;;12.80;;
9234;SDS011;4652;42.716;23.218;2023-05-14T21:58:37;13.53;;;12.13;;
9234;SDS011;4652;42.716;23.218;2023-05-14T22:05:19;14.47;;;12.80;;
9234;SDS011;4652;42.716;23.218;2023-05-14T22:12:02;13.60;;;12.30;;
9234;SDS011;4652;42.716;23.218;2023-05-14T22:18:45;15.07;;;13.03;;
9234;SDS011;4652;42.716;23.218;2023-05-14T22:25:27;11.23;;;10.17;;
9234;SDS011;4652;42.716;23.218;2023-05-14T22:32:10;15.27;;;13.37;;
9234;SDS011;4652;42.716;23.218;2023-05-14T22:38:52;14.57;;;12.93;;
9234;SDS011;4652;42.716;23.218;2023-05-14T22:45:34;14.70;;;12.97;;
9234;SDS011;4652;42.716;23.218;2023-05-14T22:52:17;13.73;;;12.20;;
9234;SDS011;4652;42.716;23.218;2023-05-14T22:58:59;15.10;;;13.50;;
9234;SDS011;4652;42.716;23.218;2023-05-14T23:05:42;14.13;;;11.90;;
9234;SDS011;4652;42.716;23.218;2023-05-14T23:12:25;14.63;;;12.80;;
9234;SDS011;4652;42.716;23.218;2023-05-14T23:19:07;14.10;;;12.63;;
9234;SDS011;4652;42.716;23.218;2023-05-14T23:25:49;15.37;;;12.83;;
9234;SDS011;4652;42.716;23.218;2023-05-14T23:32:33;15.33;;;13.23;;
9234;SDS011;4652;42.716;23.218;2023-05-14T23:39:15;14.20;;;12.80;;
9234;SDS011;4652;42.716;23.218;2023-05-14T23:45:57;15.10;;;13.17;;
9234;SDS011;4652;42.716;23.218;2023-05-14T23:52:41;15.17;;;13.57;;
9234;SDS011;4652;42.716;23.218;2023-05-14T23:59:22;14.23;;;12.67;;
